Time;durP1;ratioP1;P1;durP2;ratioP2;P2;SDS_P1;SDS_P2;PMS_P1;PMS_P2;Temp;Humidity;BMP_temperature;BMP_pressure;BME280_temperature;BME280_humidity;BME280_pressure;Samples;Min_cycle;Max_cycle;Signal;HPM_P1;HPM_P2
2022/07/22 00:00:46;;;;;;;6.73;6.03;;;20.90;99.90;;;;;;8338415;28;20200;-63
2022/07/22 00:04:46;;;;;;;8.10;7.30;;;20.90;99.90;;;;;;8334914;28;20213;-65
2022/07/22 00:08:47;;;;;;;8.57;7.77;;;20.90;99.90;;;;;;8333826;28;20182;-64
2022/07/22 00:12:48;;;;;;;9.00;7.53;;;20.80;1.00;;;;;;8338715;28;20206;-65
2022/07/22 00:16:49;;;;;;;7.43;6.73;;;20.60;1.00;;;;;;8340945;28;20204;-65
2022/07/22 00:20:50;;;;;;;7.50;6.73;;;20.50;1.00;;;;;;8370960;28;20190;-65
2022/07/22 00:24:51;;;;;;;8.73;7.77;;;20.50;99.90;;;;;;8345391;28;20206;-66
2022/07/22 00:28:52;;;;;;;10.43;7.23;;;20.40;99.90;;;;;;8333113;28;20197;-65
2022/07/22 00:32:53;;;;;;;8.10;6.90;;;20.30;1.00;;;;;;8351356;28;20182;-63
2022/07/22 00:36:53;;;;;;;9.87;7.67;;;20.20;1.00;;;;;;8337046;28;20191;-62
2022/07/22 00:40:54;;;;;;;7.93;7.07;;;20.30;99.90;;;;;;8358750;28;20471;-63
2022/07/22 00:44:55;;;;;;;8.00;7.20;;;20.30;99.90;;;;;;8339475;28;20263;-62
2022/07/22 00:48:57;;;;;;;7.83;6.97;;;20.40;99.90;;;;;;8336576;28;20196;-62
2022/07/22 00:52:58;;;;;;;8.90;7.00;;;20.40;99.90;;;;;;8351031;28;20276;-62
2022/07/22 00:56:59;;;;;;;9.33;7.50;;;20.50;99.90;;;;;;8340680;28;20186;-63
2022/07/22 01:01:00;;;;;;;10.30;7.67;;;20.60;99.90;;;;;;8346545;28;20208;-64
2022/07/22 01:05:01;;;;;;;10.47;7.17;;;20.50;99.90;;;;;;8326527;28;20208;-63
2022/07/22 01:09:02;;;;;;;9.00;6.87;;;20.50;99.90;;;;;;8332883;28;20239;-64
2022/07/22 01:13:02;;;;;;;9.77;7.10;;;20.40;99.90;;;;;;8330429;28;20236;-65
2022/07/22 01:17:04;;;;;;;11.07;7.43;;;20.30;99.90;;;;;;8343463;28;20185;-67
2022/07/22 01:21:09;;;;;;;8.70;7.77;;;20.30;99.90;;;;;;8330943;28;20446;-64
2022/07/22 01:25:10;;;;;;;7.93;7.13;;;20.20;99.90;;;;;;8332946;28;20221;-64
2022/07/22 01:29:11;;;;;;;7.93;7.23;;;20.20;99.90;;;;;;8347597;28;20184;-66
2022/07/22 01:33:12;;;;;;;7.77;7.07;;;20.20;99.90;;;;;;8327036;28;20191;-66
2022/07/22 01:37:13;;;;;;;8.77;7.43;;;20.10;99.90;;;;;;8358638;28;20178;-64
2022/07/22 01:41:14;;;;;;;8.13;7.33;;;20.10;99.90;;;;;;8329611;28;20193;-64
2022/07/22 01:45:15;;;;;;;8.07;7.27;;;20.10;99.90;;;;;;8335467;28;20245;-64
2022/07/22 01:49:16;;;;;;;7.67;6.87;;;20.10;99.90;;;;;;8337197;28;20209;-65
2022/07/22 01:53:18;;;;;;;8.43;7.47;;;20.10;99.90;;;;;;8350807;28;20226;-63
2022/07/22 01:57:18;;;;;;;10.47;7.77;;;20.10;99.90;;;;;;8335243;28;20194;-62
2022/07/22 02:01:21;;;;;;;11.10;8.53;;;20.10;99.90;;;;;;8343789;28;20296;-65
2022/07/22 02:05:22;;;;;;;11.07;8.03;;;20.00;99.90;;;;;;8326072;28;20221;-63
2022/07/22 02:09:22;;;;;;;8.83;7.63;;;19.80;99.90;;;;;;8337386;28;20189;-63
2022/07/22 02:13:23;;;;;;;9.30;8.40;;;19.80;99.90;;;;;;8326698;28;20198;-63
2022/07/22 02:17:26;;;;;;;11.17;8.20;;;19.80;99.90;;;;;;8330284;28;20276;-65
2022/07/22 02:21:27;;;;;;;10.00;9.10;;;19.60;99.90;;;;;;8347142;28;20252;-63
2022/07/22 02:25:28;;;;;;;12.67;8.53;;;19.60;99.90;;;;;;8329933;28;20214;-64
2022/07/22 02:29:29;;;;;;;9.30;7.80;;;19.50;1.00;;;;;;8323937;28;20186;-64
2022/07/22 02:33:29;;;;;;;9.53;8.13;;;19.50;1.00;;;;;;8346613;28;20185;-64
2022/07/22 02:37:30;;;;;;;10.07;9.07;;;19.40;1.00;;;;;;8338316;28;20280;-65
2022/07/22 02:41:31;;;;;;;9.03;8.23;;;19.40;1.00;;;;;;8335118;28;20185;-65
2022/07/22 02:45:33;;;;;;;8.30;7.50;;;19.30;1.00;;;;;;8329836;28;20236;-66
2022/07/22 02:49:34;;;;;;;7.53;6.80;;;19.20;1.00;;;;;;8326972;28;20182;-66
2022/07/22 02:53:35;;;;;;;8.43;7.63;;;19.10;1.00;;;;;;8340670;28;20654;-67
2022/07/22 02:57:36;;;;;;;9.87;8.10;;;19.00;67.60;;;;;;8339694;28;20366;-65
2022/07/22 03:01:37;;;;;;;8.20;7.40;;;18.90;99.90;;;;;;8325976;28;20189;-66
2022/07/22 03:05:38;;;;;;;8.07;7.27;;;18.80;99.90;;;;;;8337865;28;20209;-67
2022/07/22 03:09:38;;;;;;;8.70;7.90;;;18.80;99.90;;;;;;8322196;28;20209;-66
2022/07/22 03:13:42;;;;;;;8.37;7.63;;;18.70;99.90;;;;;;8344794;28;20194;-66
2022/07/22 03:17:43;;;;;;;8.53;7.63;;;18.70;99.90;;;;;;8339254;28;20275;-66
2022/07/22 03:21:44;;;;;;;9.10;8.20;;;18.70;99.90;;;;;;8351608;28;20232;-67
2022/07/22 03:25:44;;;;;;;10.40;7.73;;;18.60;99.90;;;;;;8335584;28;20206;-63
2022/07/22 03:29:45;;;;;;;8.83;7.97;;;18.60;99.90;;;;;;8365157;28;20309;-64
2022/07/22 03:33:46;;;;;;;9.17;8.37;;;18.60;99.90;;;;;;8334043;28;20201;-65
2022/07/22 03:37:47;;;;;;;9.63;8.47;;;18.60;99.90;;;;;;8341852;28;20355;-64
2022/07/22 03:41:48;;;;;;;10.27;9.27;;;18.70;99.90;;;;;;8352074;28;20662;-67
2022/07/22 03:45:49;;;;;;;10.40;9.00;;;18.70;1.00;;;;;;8321913;28;20216;-66
2022/07/22 03:49:50;;;;;;;12.50;8.83;;;18.70;99.90;;;;;;8347642;28;20193;-67
2022/07/22 03:53:51;;;;;;;8.83;7.93;;;18.70;99.90;;;;;;8334100;28;20225;-66
2022/07/22 03:57:52;;;;;;;9.43;8.43;;;18.90;99.90;;;;;;8347636;28;20201;-65
2022/07/22 04:01:53;;;;;;;9.73;8.83;;;19.10;99.90;;;;;;8330899;28;20536;-66
2022/07/22 04:05:53;;;;;;;10.93;8.50;;;19.60;99.90;;;;;;8333819;28;20304;-64
2022/07/22 04:10:04;;;;;;;9.43;7.97;;;20.70;99.90;;;;;;8337049;28;20228;-64
2022/07/22 04:14:05;;;;;;;9.83;7.53;;;22.00;1.00;;;;;;8332474;28;20197;-67
2022/07/22 04:18:06;;;;;;;8.90;7.57;;;23.30;99.90;;;;;;8337458;28;20186;-64
2022/07/22 04:22:06;;;;;;;11.23;7.77;;;24.40;99.90;;;;;;8334884;28;20198;-63
2022/07/22 04:26:07;;;;;;;7.87;7.17;;;25.20;98.90;;;;;;8327521;28;20213;-65
2022/07/22 04:30:09;;;;;;;8.00;7.23;;;25.20;73.40;;;;;;8357514;28;20185;-66
2022/07/22 04:34:09;;;;;;;8.37;7.47;;;25.30;68.70;;;;;;8323227;28;20199;-64
2022/07/22 04:38:10;;;;;;;8.57;7.73;;;25.60;24.80;;;;;;8323350;28;20186;-64
2022/07/22 04:42:11;;;;;;;10.37;7.40;;;25.30;28.20;;;;;;8344266;28;20273;-64
2022/07/22 04:46:12;;;;;;;8.13;7.27;;;25.10;49.00;;;;;;8327730;28;20352;-63
2022/07/22 04:50:13;;;;;;;8.17;7.20;;;25.20;54.20;;;;;;8348602;28;20186;-65
2022/07/22 04:54:14;;;;;;;10.40;7.70;;;25.30;38.40;;;;;;8345282;28;20198;-62
2022/07/22 04:58:15;;;;;;;8.40;7.60;;;25.40;12.80;;;;;;8327755;28;20272;-63
2022/07/22 05:02:15;;;;;;;7.27;6.67;;;25.40;16.60;;;;;;8342090;28;20622;-64
2022/07/22 05:06:16;;;;;;;7.87;7.10;;;25.30;21.20;;;;;;8324127;28;20238;-65
2022/07/22 05:10:17;;;;;;;7.80;7.10;;;24.80;61.00;;;;;;8324520;28;20203;-66
2022/07/22 05:14:18;;;;;;;8.27;7.40;;;24.80;57.30;;;;;;8326931;28;20188;-63
2022/07/22 05:18:18;;;;;;;8.27;7.50;;;24.40;95.50;;;;;;8323283;28;20293;-63
2022/07/22 05:22:19;;;;;;;8.73;7.83;;;23.90;99.90;;;;;;8329872;28;20198;-66
2022/07/22 05:26:20;;;;;;;8.97;7.33;;;23.70;99.90;;;;;;8327964;28;20213;-64
2022/07/22 05:30:21;;;;;;;9.43;7.47;;;23.60;99.90;;;;;;8337406;28;20187;-66
2022/07/22 05:34:22;;;;;;;11.40;8.23;;;23.40;99.90;;;;;;8362031;28;20626;-64
2022/07/22 05:38:23;;;;;;;8.80;7.93;;;23.30;99.90;;;;;;8330278;28;20191;-65
2022/07/22 05:42:24;;;;;;;8.97;8.07;;;23.20;99.90;;;;;;8344775;28;20237;-63
2022/07/22 05:46:25;;;;;;;10.50;8.87;;;23.20;99.90;;;;;;8362091;28;20206;-66
2022/07/22 05:50:26;;;;;;;10.27;9.10;;;23.20;99.90;;;;;;8325787;28;20499;-63
2022/07/22 05:54:28;;;;;;;8.87;7.97;;;23.00;99.90;;;;;;8344900;28;20202;-63
2022/07/22 05:58:29;;;;;;;10.20;8.67;;;22.90;99.90;;;;;;8328783;28;20182;-65
2022/07/22 06:02:30;;;;;;;9.13;8.03;;;23.00;99.90;;;;;;8329629;28;20194;-63
2022/07/22 06:06:30;;;;;;;9.37;8.43;;;23.00;99.90;;;;;;8357044;28;20214;-63
2022/07/22 06:10:31;;;;;;;9.23;8.30;;;23.10;99.90;;;;;;8328809;28;20197;-65
2022/07/22 06:14:32;;;;;;;11.40;8.57;;;23.00;99.90;;;;;;8318261;28;20193;-63
2022/07/22 06:18:33;;;;;;;10.50;9.40;;;23.20;99.90;;;;;;8321535;28;20188;-66
2022/07/22 06:22:33;;;;;;;9.77;8.77;;;23.30;99.90;;;;;;8332488;28;20185;-63
2022/07/22 06:26:34;;;;;;;9.93;8.93;;;23.20;99.90;;;;;;8324325;28;20210;-67
2022/07/22 06:30:35;;;;;;;10.63;9.53;;;23.30;99.90;;;;;;8353211;28;20232;-66
2022/07/22 06:34:36;;;;;;;9.90;8.53;;;23.40;99.90;;;;;;8326659;28;20204;-62
2022/07/22 06:38:37;;;;;;;10.37;9.37;;;23.50;99.90;;;;;;8325710;28;20189;-65
2022/07/22 06:42:39;;;;;;;10.30;9.27;;;23.50;99.90;;;;;;8321168;28;20277;-62
2022/07/22 06:46:40;;;;;;;9.97;8.53;;;23.50;99.90;;;;;;8318502;28;20209;-64
2022/07/22 06:50:40;;;;;;;8.80;7.90;;;23.70;99.90;;;;;;8316692;28;20222;-65
2022/07/22 06:54:41;;;;;;;10.53;8.53;;;24.10;99.90;;;;;;8344290;28;20216;-63
2022/07/22 06:58:42;;;;;;;9.30;8.30;;;24.90;96.60;;;;;;8341280;28;20194;-63
2022/07/22 07:02:43;;;;;;;9.90;8.37;;;24.80;91.50;;;;;;8341355;28;20185;-62
2022/07/22 07:06:44;;;;;;;11.43;8.40;;;24.70;94.00;;;;;;8332232;28;20210;-63
2022/07/22 07:10:45;;;;;;;9.53;8.63;;;24.80;83.30;;;;;;8339074;28;20206;-63
2022/07/22 07:14:46;;;;;;;9.73;8.47;;;24.90;81.00;;;;;;8323788;28;20216;-66
2022/07/22 07:18:46;;;;;;;8.57;7.70;;;25.00;63.20;;;;;;8320975;28;20202;-63
2022/07/22 07:22:47;;;;;;;8.33;7.50;;;25.10;34.60;;;;;;8319389;28;20189;-64
2022/07/22 07:26:48;;;;;;;7.90;7.10;;;25.10;24.90;;;;;;8344707;28;20217;-64
2022/07/22 07:30:50;;;;;;;7.73;6.90;;;25.30;15.10;;;;;;8320718;28;20205;-64
2022/07/22 07:34:50;;;;;;;7.40;6.67;;;25.50;1.00;;;;;;8322499;28;20189;-64
2022/07/22 07:38:51;;;;;;;9.10;6.67;;;25.60;1.00;;;;;;8335346;28;20194;-64
2022/07/22 07:42:52;;;;;;;6.43;5.83;;;25.90;1.00;;;;;;8336492;28;20198;-62
2022/07/22 07:46:53;;;;;;;7.03;6.40;;;25.90;1.00;;;;;;8332581;28;20216;-63
2022/07/22 07:50:54;;;;;;;6.97;6.37;;;26.20;1.00;;;;;;8335529;28;20210;-65
2022/07/22 07:54:58;;;;;;;6.50;5.70;;;26.30;1.00;;;;;;8342312;28;20209;-62
2022/07/22 07:58:58;;;;;;;7.80;6.43;;;26.30;1.00;;;;;;8319601;28;20194;-63
2022/07/22 08:03:00;;;;;;;6.90;6.20;;;26.30;1.00;;;;;;8336257;28;20186;-66
2022/07/22 08:07:02;;;;;;;6.17;5.40;;;26.40;1.00;;;;;;8341756;28;20293;-65
2022/07/22 08:11:03;;;;;;;6.03;4.93;;;26.40;1.00;;;;;;8333175;28;20186;-68
2022/07/22 08:15:05;;;;;;;6.83;5.50;;;26.80;1.00;;;;;;8328979;28;20194;-64
2022/07/22 08:19:06;;;;;;;5.63;5.00;;;26.70;1.00;;;;;;8346894;28;20187;-63
2022/07/22 08:23:07;;;;;;;5.90;5.18;;;26.70;1.00;;;;;;8332879;28;20201;-64
2022/07/22 08:27:08;;;;;;;6.75;5.43;;;26.60;1.00;;;;;;8331033;28;20265;-65
2022/07/22 08:31:09;;;;;;;6.88;5.18;;;26.50;1.00;;;;;;8361445;28;20198;-63
2022/07/22 08:35:10;;;;;;;5.60;5.10;;;26.50;1.00;;;;;;8346939;28;20384;-64
2022/07/22 08:39:11;;;;;;;6.38;4.63;;;26.80;1.00;;;;;;8335649;28;20193;-63
2022/07/22 08:43:12;;;;;;;5.07;4.57;;;26.90;1.00;;;;;;8337466;28;20304;-64
2022/07/22 08:47:13;;;;;;;5.50;5.00;;;26.90;1.00;;;;;;8342194;28;20190;-63
2022/07/22 08:51:14;;;;;;;4.97;4.47;;;27.50;1.00;;;;;;8355711;28;20205;-65
2022/07/22 08:55:16;;;;;;;5.90;4.40;;;28.10;1.00;;;;;;8328874;28;20194;-64
2022/07/22 08:59:17;;;;;;;5.57;4.60;;;28.60;1.00;;;;;;8328837;28;20197;-63
2022/07/22 09:03:21;;;;;;;5.22;4.72;;;29.10;1.00;;;;;;8326601;28;20289;-62
2022/07/22 09:07:34;;;;;;;5.10;4.60;;;29.10;1.00;;;;;;8340944;28;20179;-63
2022/07/22 09:11:35;;;;;;;4.47;4.07;;;29.10;1.00;;;;;;8336772;28;20189;-64
2022/07/22 09:15:47;;;;;;;4.78;4.35;;;29.40;1.00;;;;;;8324092;28;20181;-65
2022/07/22 09:19:47;;;;;;;4.68;4.00;;;29.80;1.00;;;;;;8325848;28;20200;-63
2022/07/22 09:23:48;;;;;;;6.32;4.10;;;30.00;1.00;;;;;;8334714;28;20297;-59
2022/07/22 09:27:51;;;;;;;4.20;3.80;;;29.70;1.00;;;;;;8335999;28;20182;-63
2022/07/22 09:31:52;;;;;;;5.95;4.15;;;29.90;1.00;;;;;;8324150;28;20186;-64
2022/07/22 09:36:04;;;;;;;5.32;4.55;;;30.00;1.00;;;;;;8326934;28;20190;-65
2022/07/22 09:40:16;;;;;;;5.20;4.25;;;29.20;1.00;;;;;;8359895;28;20209;-62
2022/07/22 09:44:22;;;;;;;4.88;3.90;;;28.90;1.00;;;;;;8335137;28;20197;-62
2022/07/22 09:48:24;;;;;;;4.40;4.00;;;28.90;1.00;;;;;;8338478;28;20178;-67
2022/07/22 09:52:26;;;;;;;4.07;3.47;;;28.90;1.00;;;;;;8346481;28;20520;-64
2022/07/22 09:56:29;;;;;;;4.97;3.67;;;28.70;1.00;;;;;;8365251;28;20219;-62
2022/07/22 10:00:30;;;;;;;6.80;3.72;;;28.40;1.00;;;;;;8341360;28;20181;-64
2022/07/22 10:04:35;;;;;;;3.50;3.20;;;28.80;1.00;;;;;;8326854;28;20218;-60
2022/07/22 10:08:37;;;;;;;4.88;3.63;;;29.20;1.00;;;;;;8355497;28;20178;-63
2022/07/22 10:12:39;;;;;;;4.72;3.88;;;29.70;1.00;;;;;;8327658;28;20194;-64
2022/07/22 10:16:40;;;;;;;4.53;4.00;;;29.60;1.00;;;;;;8334530;28;20322;-63
2022/07/22 10:20:42;;;;;;;5.47;3.40;;;30.00;1.00;;;;;;8325611;28;20206;-62
2022/07/22 10:25:00;;;;;;;8.07;3.83;;;30.00;1.00;;;;;;8321942;28;20238;-66
2022/07/22 10:29:25;;;;;;;4.40;4.00;;;30.70;1.00;;;;;;8322188;28;20190;-62
2022/07/22 10:33:30;;;;;;;4.45;4.05;;;31.20;1.00;;;;;;8324877;28;20186;-61
2022/07/22 10:37:34;;;;;;;4.47;3.58;;;31.20;1.00;;;;;;8340886;28;20194;-65
2022/07/22 10:41:37;;;;;;;4.32;3.92;;;31.30;1.00;;;;;;8343239;28;20624;-64
2022/07/22 10:45:50;;;;;;;4.95;3.40;;;30.60;1.00;;;;;;8352137;28;20224;-65
2022/07/22 10:49:51;;;;;;;4.03;3.70;;;30.00;1.00;;;;;;8322873;28;20209;-64
2022/07/22 10:54:01;;;;;;;5.70;4.20;;;29.70;1.00;;;;;;8328512;28;20237;-63
2022/07/22 10:58:33;;;;;;;4.20;3.80;;;29.80;1.00;;;;;;8330795;28;20508;-63
2022/07/22 11:02:36;;;;;;;5.82;3.63;;;30.30;1.00;;;;;;8355148;28;20193;-64
2022/07/22 11:06:36;;;;;;;5.75;4.03;;;30.40;1.00;;;;;;8340030;28;20240;-63
2022/07/22 11:10:48;;;;;;;5.40;4.03;;;30.40;1.00;;;;;;8328183;28;20186;-62
2022/07/22 11:14:49;;;;;;;4.63;3.90;;;30.80;1.00;;;;;;8320849;28;20699;-66
2022/07/22 11:18:54;;;;;;;6.50;4.18;;;30.60;1.00;;;;;;8338551;28;20190;-65
2022/07/22 11:22:56;;;;;;;3.80;3.45;;;30.60;1.00;;;;;;8324453;28;20193;-61
2022/07/22 11:26:59;;;;;;;6.95;4.50;;;30.30;1.00;;;;;;8317161;28;20229;-64
2022/07/22 11:31:07;;;;;;;5.07;4.35;;;30.10;1.00;;;;;;8331797;28;20178;-64
2022/07/22 11:35:11;;;;;;;5.78;3.92;;;30.00;1.00;;;;;;8333574;28;20240;-63
2022/07/22 11:39:13;;;;;;;4.60;3.80;;;30.30;1.00;;;;;;8325280;28;20190;-64
2022/07/22 11:43:14;;;;;;;7.43;4.22;;;30.70;1.00;;;;;;8348285;28;20189;-63
2022/07/22 11:47:15;;;;;;;6.22;3.97;;;31.50;1.00;;;;;;8340594;28;20288;-63
2022/07/22 11:51:16;;;;;;;5.10;3.55;;;32.00;1.00;;;;;;8345653;28;20209;-63
2022/07/22 11:55:17;;;;;;;6.80;4.10;;;32.20;1.00;;;;;;8331774;28;20193;-63
2022/07/22 11:59:18;;;;;;;4.28;3.38;;;32.00;1.00;;;;;;8344701;28;20379;-69
2022/07/22 12:03:19;;;;;;;4.78;4.28;;;32.00;1.00;;;;;;8324814;28;20182;-63
2022/07/22 12:07:20;;;;;;;4.50;3.90;;;31.90;1.00;;;;;;8330684;28;20213;-65
2022/07/22 12:11:24;;;;;;;5.68;4.28;;;31.70;1.00;;;;;;8347498;28;20181;-64
2022/07/22 12:15:25;;;;;;;5.20;4.70;;;31.40;1.00;;;;;;8328481;28;20345;-64
2022/07/22 12:19:29;;;;;;;4.70;4.30;;;29.80;1.00;;;;;;8328750;28;20358;-63
2022/07/22 12:23:31;;;;;;;6.72;4.40;;;29.10;1.00;;;;;;8323096;28;20210;-67
2022/07/22 12:27:32;;;;;;;6.45;4.88;;;29.00;1.00;;;;;;8323356;28;20272;-63
2022/07/22 12:32:00;;;;;;;5.00;4.50;;;29.50;1.00;;;;;;8341047;28;20240;-63
2022/07/22 12:36:06;;;;;;;5.57;5.07;;;29.40;1.00;;;;;;8344735;28;20190;-62
2022/07/22 12:40:18;;;;;;;5.20;4.70;;;29.20;1.00;;;;;;8333145;28;20186;-64
2022/07/22 12:44:21;;;;;;;6.13;4.90;;;29.00;1.00;;;;;;8339405;28;20206;-62
2022/07/22 12:48:28;;;;;;;6.85;5.60;;;29.30;1.00;;;;;;8356277;28;20185;-62
2022/07/22 12:52:29;;;;;;;5.97;5.20;;;29.20;1.00;;;;;;8326403;28;20285;-63
2022/07/22 12:56:30;;;;;;;6.22;4.80;;;28.90;1.00;;;;;;8343817;28;20189;-66
2022/07/22 13:00:41;;;;;;;5.85;5.20;;;29.00;1.00;;;;;;8324282;28;20189;-64
2022/07/22 13:04:41;;;;;;;5.47;4.97;;;29.20;1.00;;;;;;8334896;28;20209;-65
2022/07/22 13:08:42;;;;;;;7.00;4.80;;;29.40;1.00;;;;;;8322454;28;20190;-63
2022/07/22 13:12:43;;;;;;;6.28;4.47;;;29.70;1.00;;;;;;8330273;28;20307;-64
2022/07/22 13:16:44;;;;;;;5.03;4.55;;;29.40;1.00;;;;;;8326219;28;20187;-63
2022/07/22 13:20:45;;;;;;;11.32;4.85;;;28.90;1.00;;;;;;8335776;28;20183;-64
2022/07/22 13:24:46;;;;;;;8.25;5.20;;;28.80;1.00;;;;;;8320383;28;20456;-64
2022/07/22 13:28:47;;;;;;;5.50;4.75;;;29.10;1.00;;;;;;8315708;28;20182;-65
2022/07/22 13:32:48;;;;;;;6.97;5.18;;;29.50;1.00;;;;;;8326118;28;20178;-62
2022/07/22 13:36:48;;;;;;;5.50;5.00;;;29.60;1.00;;;;;;8343712;28;20189;-64
2022/07/22 13:40:52;;;;;;;6.30;4.90;;;30.00;1.00;;;;;;8342597;28;20293;-65
2022/07/22 13:44:54;;;;;;;5.60;4.75;;;30.30;1.00;;;;;;8337575;28;20297;-65
2022/07/22 13:48:55;;;;;;;5.20;4.45;;;30.30;1.00;;;;;;8337547;28;20186;-64
2022/07/22 13:52:55;;;;;;;5.63;4.95;;;30.50;1.00;;;;;;8329279;28;20622;-64
2022/07/22 13:56:56;;;;;;;5.55;4.70;;;30.20;1.00;;;;;;8343177;28;20200;-62
2022/07/22 14:00:57;;;;;;;6.05;5.03;;;29.80;1.00;;;;;;8321537;28;20187;-62
2022/07/22 14:04:58;;;;;;;5.55;4.35;;;30.00;1.00;;;;;;8327353;28;20234;-64
2022/07/22 14:08:59;;;;;;;6.07;4.97;;;30.50;1.00;;;;;;8323894;28;20192;-66
2022/07/22 14:13:00;;;;;;;5.10;4.65;;;30.60;1.00;;;;;;8332961;28;20202;-63
2022/07/22 14:17:01;;;;;;;6.05;5.32;;;30.10;1.00;;;;;;8338906;28;20186;-63
2022/07/22 14:21:02;;;;;;;5.03;4.60;;;29.30;1.00;;;;;;8323887;28;20194;-65
2022/07/22 14:25:04;;;;;;;6.35;5.13;;;29.10;1.00;;;;;;8329505;28;20265;-64
2022/07/22 14:29:07;;;;;;;5.30;4.80;;;29.30;1.00;;;;;;8321278;28;20185;-65
2022/07/22 14:33:07;;;;;;;5.25;4.78;;;29.20;1.00;;;;;;8333285;28;20490;-64
2022/07/22 14:37:08;;;;;;;5.93;5.15;;;29.20;1.00;;;;;;8329377;28;20192;-65
2022/07/22 14:41:09;;;;;;;9.82;5.13;;;29.30;1.00;;;;;;8354630;28;20201;-62
2022/07/22 14:45:10;;;;;;;5.72;5.07;;;29.60;1.00;;;;;;8328831;28;20205;-64
2022/07/22 14:49:11;;;;;;;5.85;5.32;;;29.80;1.00;;;;;;8329836;28;20188;-64
2022/07/22 14:53:13;;;;;;;5.85;5.25;;;30.00;1.00;;;;;;8321147;28;20214;-64
2022/07/22 14:57:13;;;;;;;6.47;5.18;;;30.20;1.00;;;;;;8329927;28;20278;-65
2022/07/22 15:01:14;;;;;;;6.40;5.00;;;30.00;1.00;;;;;;8330750;28;20191;-64
2022/07/22 15:05:15;;;;;;;6.03;5.20;;;29.90;1.00;;;;;;8319299;28;20209;-63
2022/07/22 15:09:16;;;;;;;5.93;5.15;;;29.50;1.00;;;;;;8323014;28;20205;-63
2022/07/22 15:13:17;;;;;;;9.98;5.22;;;29.50;1.00;;;;;;8322749;28;20213;-64
2022/07/22 15:17:18;;;;;;;5.80;5.18;;;29.80;1.00;;;;;;8328640;28;20194;-64
2022/07/22 15:21:19;;;;;;;5.50;4.63;;;30.20;1.00;;;;;;8325453;28;20278;-63
2022/07/22 15:25:22;;;;;;;5.25;4.75;;;30.30;1.00;;;;;;8338576;28;20209;-63
2022/07/22 15:29:23;;;;;;;5.78;5.18;;;30.20;1.00;;;;;;8323231;28;20189;-67
2022/07/22 15:33:25;;;;;;;5.68;4.80;;;30.30;1.00;;;;;;8353493;28;20229;-63
2022/07/22 15:37:26;;;;;;;6.95;5.18;;;30.30;1.00;;;;;;8342758;28;20189;-65
2022/07/22 15:41:28;;;;;;;5.90;5.28;;;30.30;1.00;;;;;;8322856;28;20225;-64
2022/07/22 15:45:29;;;;;;;5.05;4.38;;;30.30;1.00;;;;;;8330272;28;20214;-65
2022/07/22 15:49:29;;;;;;;5.78;5.28;;;30.40;1.00;;;;;;8356970;28;20183;-64
2022/07/22 15:53:31;;;;;;;5.90;5.30;;;30.40;1.00;;;;;;8323404;28;20214;-65
2022/07/22 16:01:50;;;;;;;5.63;5.03;;;29.80;1.00;;;;;;8343487;28;20286;-66
2022/07/22 16:05:51;;;;;;;4.90;4.50;;;29.40;1.00;;;;;;8337588;28;20202;-65
2022/07/22 16:09:52;;;;;;;7.18;5.00;;;29.50;1.00;;;;;;8318296;28;20186;-65
2022/07/22 16:13:54;;;;;;;8.02;5.00;;;29.60;1.00;;;;;;8326985;28;20190;-64
2022/07/22 16:17:54;;;;;;;6.68;4.82;;;29.60;1.00;;;;;;8322686;28;20189;-62
2022/07/22 16:21:55;;;;;;;5.47;4.97;;;29.80;1.00;;;;;;8320896;28;20475;-64
2022/07/22 16:25:56;;;;;;;6.05;5.43;;;30.00;1.00;;;;;;8341152;28;20209;-64
2022/07/22 16:29:58;;;;;;;5.65;5.15;;;30.20;1.00;;;;;;8343689;28;20456;-64
2022/07/22 16:33:58;;;;;;;6.70;5.60;;;30.00;1.00;;;;;;8344063;28;20198;-63
2022/07/22 16:37:59;;;;;;;4.80;4.38;;;29.80;1.00;;;;;;8320683;28;20194;-64
2022/07/22 16:42:00;;;;;;;5.70;5.15;;;29.60;1.00;;;;;;8341465;28;20182;-62
2022/07/22 16:46:02;;;;;;;7.57;5.32;;;29.30;1.00;;;;;;8325752;28;20229;-66
2022/07/22 16:50:04;;;;;;;6.18;4.95;;;29.10;1.00;;;;;;8327641;28;20270;-65
2022/07/22 16:54:05;;;;;;;6.35;4.88;;;29.00;1.00;;;;;;8342237;28;20210;-65
2022/07/22 16:58:06;;;;;;;6.05;5.55;;;28.90;1.00;;;;;;8327125;28;20208;-64
2022/07/22 17:02:08;;;;;;;5.28;4.70;;;28.80;1.00;;;;;;8326655;28;20185;-63
2022/07/22 17:06:09;;;;;;;5.28;4.78;;;28.90;1.00;;;;;;8341595;28;20210;-65
2022/07/22 17:10:12;;;;;;;5.07;4.57;;;28.90;1.00;;;;;;8345446;28;20181;-65
2022/07/22 17:14:13;;;;;;;5.90;5.20;;;28.70;1.00;;;;;;8336527;28;20182;-64
2022/07/22 17:18:14;;;;;;;4.95;4.47;;;28.70;1.00;;;;;;8330649;28;20280;-64
2022/07/22 17:22:14;;;;;;;7.57;4.78;;;28.60;1.00;;;;;;8330974;28;20186;-63
2022/07/22 17:26:15;;;;;;;5.60;5.00;;;28.40;1.00;;;;;;8342232;28;20264;-64
2022/07/22 17:30:16;;;;;;;7.03;4.88;;;28.40;1.00;;;;;;8324217;28;20269;-66
2022/07/22 17:34:17;;;;;;;5.50;4.90;;;28.60;1.00;;;;;;8326429;28;20197;-66
2022/07/22 17:38:18;;;;;;;5.70;4.70;;;28.90;1.00;;;;;;8325142;28;20190;-66
2022/07/22 17:42:19;;;;;;;5.30;4.63;;;29.20;1.00;;;;;;8321152;28;20189;-65
2022/07/22 17:46:20;;;;;;;5.38;4.22;;;29.20;1.00;;;;;;8354462;28;20218;-64
2022/07/22 17:50:20;;;;;;;4.68;4.00;;;29.40;1.00;;;;;;8332206;28;20189;-65
2022/07/22 17:54:22;;;;;;;4.40;3.88;;;29.70;1.00;;;;;;8340823;28;20293;-65
2022/07/22 17:58:22;;;;;;;5.65;3.53;;;29.90;1.00;;;;;;8340894;28;20191;-65
2022/07/22 18:02:23;;;;;;;5.40;3.92;;;29.60;1.00;;;;;;8341693;28;20233;-65
2022/07/22 18:06:24;;;;;;;4.50;3.38;;;29.40;1.00;;;;;;8335925;28;20228;-66
2022/07/22 18:10:25;;;;;;;4.68;3.35;;;29.30;1.00;;;;;;8319341;28;20538;-64
2022/07/22 18:14:26;;;;;;;3.78;3.42;;;29.50;1.00;;;;;;8320440;28;20192;-65
2022/07/22 18:18:26;;;;;;;4.90;3.33;;;29.30;1.00;;;;;;8327347;28;20237;-64
2022/07/22 18:22:27;;;;;;;3.65;3.35;;;29.20;1.00;;;;;;8341599;28;20193;-65
2022/07/22 18:26:28;;;;;;;4.15;3.28;;;29.20;1.00;;;;;;8332527;28;20246;-64
2022/07/22 18:30:29;;;;;;;4.18;3.50;;;28.70;1.00;;;;;;8340775;28;20181;-64
2022/07/22 18:34:30;;;;;;;7.85;3.75;;;27.80;1.00;;;;;;8320048;28;20186;-65
2022/07/22 18:38:31;;;;;;;4.43;3.38;;;27.10;1.00;;;;;;8321308;28;20190;-65
2022/07/22 18:42:31;;;;;;;5.65;3.72;;;26.70;1.00;;;;;;8331360;28;20224;-64
2022/07/22 18:46:32;;;;;;;3.70;3.40;;;26.40;1.00;;;;;;8316921;28;20213;-66
2022/07/22 18:50:34;;;;;;;4.50;3.20;;;26.20;1.00;;;;;;8322491;28;20198;-65
2022/07/22 18:54:35;;;;;;;3.60;3.30;;;25.90;1.00;;;;;;8328696;28;20217;-66
2022/07/22 18:58:36;;;;;;;3.43;3.10;;;25.60;1.00;;;;;;8326316;28;20189;-68
2022/07/22 19:02:37;;;;;;;5.07;3.83;;;25.30;1.00;;;;;;8333682;28;20273;-64
2022/07/22 19:06:38;;;;;;;4.27;3.87;;;25.10;1.00;;;;;;8316400;28;20210;-63
2022/07/22 19:10:39;;;;;;;4.67;3.70;;;24.80;1.00;;;;;;8322856;28;20178;-64
2022/07/22 19:14:39;;;;;;;4.10;3.70;;;24.60;1.00;;;;;;8321324;28;20680;-63
2022/07/22 19:18:40;;;;;;;3.80;3.50;;;24.30;1.00;;;;;;8316023;28;20193;-64
2022/07/22 19:22:41;;;;;;;4.53;4.13;;;24.10;1.00;;;;;;8320768;28;20201;-63
2022/07/22 19:26:43;;;;;;;4.53;4.13;;;23.80;1.00;;;;;;8317211;28;20225;-64
2022/07/22 19:30:44;;;;;;;4.03;3.73;;;23.60;1.00;;;;;;8313544;28;20183;-65
2022/07/22 19:34:45;;;;;;;3.73;3.43;;;23.30;1.00;;;;;;8316045;28;20192;-63
2022/07/22 19:38:45;;;;;;;3.93;3.30;;;23.00;1.00;;;;;;8317200;28;20210;-65
2022/07/22 19:42:47;;;;;;;4.20;3.60;;;22.70;1.00;;;;;;8323705;28;20187;-64
2022/07/22 19:46:53;;;;;;;3.50;3.20;;;22.50;1.00;;;;;;8355370;28;20206;-64
2022/07/22 19:50:54;;;;;;;4.00;3.60;;;22.30;1.00;;;;;;8315905;28;20277;-65
2022/07/22 19:54:55;;;;;;;4.07;3.67;;;22.20;1.00;;;;;;8322384;28;20192;-63
2022/07/22 19:58:56;;;;;;;3.90;3.60;;;22.00;1.00;;;;;;8338651;28;20178;-65
2022/07/22 20:02:57;;;;;;;4.13;3.73;;;21.80;1.00;;;;;;8346741;28;20239;-64
2022/07/22 20:06:57;;;;;;;7.37;3.87;;;21.60;1.00;;;;;;8333783;28;20286;-64
2022/07/22 20:10:59;;;;;;;4.33;3.97;;;21.40;19.00;;;;;;8331484;28;20182;-65
2022/07/22 20:15:00;;;;;;;4.30;3.90;;;21.20;29.60;;;;;;8334627;28;20197;-66
2022/07/22 20:19:01;;;;;;;4.43;4.03;;;21.10;48.80;;;;;;8325848;28;20190;-63
2022/07/22 20:23:02;;;;;;;4.73;4.23;;;21.00;77.80;;;;;;8341017;28;20280;-63
2022/07/22 20:27:03;;;;;;;4.60;4.20;;;20.80;99.90;;;;;;8336181;28;20201;-64
2022/07/22 20:31:05;;;;;;;4.63;4.23;;;20.60;99.90;;;;;;8343962;28;20186;-63
2022/07/22 20:35:06;;;;;;;4.57;4.17;;;20.50;99.90;;;;;;8346413;28;20182;-62
2022/07/22 20:39:07;;;;;;;4.57;4.17;;;20.40;99.90;;;;;;8343355;28;20252;-64
2022/07/22 20:43:08;;;;;;;4.50;4.10;;;20.30;99.90;;;;;;8361576;28;20188;-64
2022/07/22 20:47:09;;;;;;;4.70;4.20;;;20.20;99.90;;;;;;8363788;28;20296;-63
2022/07/22 20:51:10;;;;;;;4.47;4.07;;;20.10;99.90;;;;;;8346323;28;20202;-63
2022/07/22 20:55:10;;;;;;;4.40;4.00;;;20.00;99.90;;;;;;8358152;28;20198;-63
2022/07/22 20:59:11;;;;;;;5.00;4.50;;;19.90;99.90;;;;;;8334161;28;20182;-63
2022/07/22 21:03:13;;;;;;;4.80;4.27;;;19.80;99.90;;;;;;8328840;28;20197;-64
2022/07/22 21:07:14;;;;;;;4.63;4.23;;;19.70;99.90;;;;;;8362948;28;20211;-64
2022/07/22 21:11:15;;;;;;;5.20;4.70;;;19.60;99.90;;;;;;8332133;28;20205;-63